sensor_id;sensor_type;location;lat;lon;timestamp;P1;durP1;ratioP1;P2;durP2;ratioP2
78406;SDS011;67692;51.074;-1.790;2023-08-31T00:00:41;5.90;;;2.03;;
78406;SDS011;67692;51.074;-1.790;2023-08-31T00:03:08;3.70;;;1.38;;
78406;SDS011;67692;51.074;-1.790;2023-08-31T00:05:36;3.40;;;0.95;;
78406;SDS011;67692;51.074;-1.790;2023-08-31T00:08:05;3.15;;;1.15;;
78406;SDS011;67692;51.074;-1.790;2023-08-31T00:10:31;5.38;;;1.23;;
78406;SDS011;67692;51.074;-1.790;2023-08-31T00:12:59;8.18;;;1.30;;
78406;SDS011;67692;51.074;-1.790;2023-08-31T00:15:26;4.55;;;1.35;;
78406;SDS011;67692;51.074;-1.790;2023-08-31T00:17:53;3.40;;;1.08;;
78406;SDS011;67692;51.074;-1.790;2023-08-31T00:20:20;5.05;;;1.40;;
78406;SDS011;67692;51.074;-1.790;2023-08-31T00:22:47;3.05;;;1.00;;
78406;SDS011;67692;51.074;-1.790;2023-08-31T00:25:14;5.88;;;1.45;;
78406;SDS011;67692;51.074;-1.790;2023-08-31T00:27:40;5.68;;;1.50;;
78406;SDS011;67692;51.074;-1.790;2023-08-31T00:30:09;5.65;;;1.27;;
78406;SDS011;67692;51.074;-1.790;2023-08-31T00:32:39;3.95;;;1.20;;
78406;SDS011;67692;51.074;-1.790;2023-08-31T00:35:07;5.10;;;1.30;;
78406;SDS011;67692;51.074;-1.790;2023-08-31T00:37:34;6.75;;;1.40;;
78406;SDS011;67692;51.074;-1.790;2023-08-31T00:40:01;5.05;;;1.40;;
78406;SDS011;67692;51.074;-1.790;2023-08-31T00:42:29;4.45;;;1.50;;
78406;SDS011;67692;51.074;-1.790;2023-08-31T00:44:56;8.38;;;1.85;;
78406;SDS011;67692;51.074;-1.790;2023-08-31T00:47:24;7.93;;;1.70;;
78406;SDS011;67692;51.074;-1.790;2023-08-31T00:49:52;4.40;;;1.73;;
78406;SDS011;67692;51.074;-1.790;2023-08-31T00:52:18;6.53;;;1.90;;
78406;SDS011;67692;51.074;-1.790;2023-08-31T00:54:46;7.25;;;1.63;;
78406;SDS011;67692;51.074;-1.790;2023-08-31T00:57:13;6.95;;;2.10;;
78406;SDS011;67692;51.074;-1.790;2023-08-31T00:59:40;8.68;;;2.03;;
78406;SDS011;67692;51.074;-1.790;2023-08-31T01:02:07;10.18;;;1.90;;
78406;SDS011;67692;51.074;-1.790;2023-08-31T01:04:41;5.53;;;1.60;;
78406;SDS011;67692;51.074;-1.790;2023-08-31T01:07:16;5.03;;;1.83;;
78406;SDS011;67692;51.074;-1.790;2023-08-31T01:09:53;5.00;;;1.48;;
78406;SDS011;67692;51.074;-1.790;2023-08-31T01:12:30;5.30;;;1.30;;
78406;SDS011;67692;51.074;-1.790;2023-08-31T01:15:03;7.35;;;1.90;;
78406;SDS011;67692;51.074;-1.790;2023-08-31T01:17:32;4.82;;;1.65;;
78406;SDS011;67692;51.074;-1.790;2023-08-31T01:20:05;5.40;;;1.23;;
78406;SDS011;67692;51.074;-1.790;2023-08-31T01:22:38;3.83;;;1.30;;
78406;SDS011;67692;51.074;-1.790;2023-08-31T01:25:08;5.80;;;1.73;;
78406;SDS011;67692;51.074;-1.790;2023-08-31T01:27:35;6.90;;;1.48;;
78406;SDS011;67692;51.074;-1.790;2023-08-31T01:30:02;6.15;;;1.42;;
78406;SDS011;67692;51.074;-1.790;2023-08-31T01:32:30;5.85;;;1.65;;
78406;SDS011;67692;51.074;-1.790;2023-08-31T01:34:57;4.57;;;1.60;;
78406;SDS011;67692;51.074;-1.790;2023-08-31T01:37:29;3.83;;;1.23;;
78406;SDS011;67692;51.074;-1.790;2023-08-31T01:40:02;7.70;;;1.70;;
78406;SDS011;67692;51.074;-1.790;2023-08-31T01:42:37;6.18;;;1.55;;
78406;SDS011;67692;51.074;-1.790;2023-08-31T01:45:05;3.85;;;1.20;;
78406;SDS011;67692;51.074;-1.790;2023-08-31T01:47:33;3.72;;;0.98;;
78406;SDS011;67692;51.074;-1.790;2023-08-31T01:50:01;5.40;;;1.58;;
78406;SDS011;67692;51.074;-1.790;2023-08-31T01:52:28;5.65;;;1.58;;
78406;SDS011;67692;51.074;-1.790;2023-08-31T01:54:55;6.30;;;1.60;;
78406;SDS011;67692;51.074;-1.790;2023-08-31T01:57:22;4.72;;;1.48;;
78406;SDS011;67692;51.074;-1.790;2023-08-31T01:59:50;4.85;;;1.60;;
78406;SDS011;67692;51.074;-1.790;2023-08-31T02:02:17;4.03;;;1.30;;
78406;SDS011;67692;51.074;-1.790;2023-08-31T02:04:43;6.10;;;1.50;;
78406;SDS011;67692;51.074;-1.790;2023-08-31T02:07:10;6.53;;;1.75;;
78406;SDS011;67692;51.074;-1.790;2023-08-31T02:09:36;3.72;;;1.23;;
78406;SDS011;67692;51.074;-1.790;2023-08-31T02:12:03;4.22;;;1.27;;
78406;SDS011;67692;51.074;-1.790;2023-08-31T02:14:30;4.65;;;1.30;;
78406;SDS011;67692;51.074;-1.790;2023-08-31T02:16:58;9.73;;;1.50;;
78406;SDS011;67692;51.074;-1.790;2023-08-31T02:19:25;4.35;;;1.40;;
78406;SDS011;67692;51.074;-1.790;2023-08-31T02:21:51;5.57;;;1.35;;
78406;SDS011;67692;51.074;-1.790;2023-08-31T02:24:18;4.78;;;1.70;;
78406;SDS011;67692;51.074;-1.790;2023-08-31T02:26:45;4.43;;;1.45;;
78406;SDS011;67692;51.074;-1.790;2023-08-31T02:29:14;4.28;;;1.25;;
78406;SDS011;67692;51.074;-1.790;2023-08-31T02:31:41;3.83;;;1.40;;
78406;SDS011;67692;51.074;-1.790;2023-08-31T02:34:09;3.85;;;1.08;;
78406;SDS011;67692;51.074;-1.790;2023-08-31T02:36:35;5.28;;;1.05;;
78406;SDS011;67692;51.074;-1.790;2023-08-31T02:39:02;4.22;;;1.30;;
78406;SDS011;67692;51.074;-1.790;2023-08-31T02:41:29;2.67;;;0.98;;
78406;SDS011;67692;51.074;-1.790;2023-08-31T02:43:56;4.85;;;1.35;;
78406;SDS011;67692;51.074;-1.790;2023-08-31T02:46:22;4.20;;;1.10;;
78406;SDS011;67692;51.074;-1.790;2023-08-31T02:48:50;3.95;;;1.40;;
78406;SDS011;67692;51.074;-1.790;2023-08-31T02:51:18;6.95;;;1.50;;
78406;SDS011;67692;51.074;-1.790;2023-08-31T02:53:44;3.53;;;1.13;;
78406;SDS011;67692;51.074;-1.790;2023-08-31T02:56:11;3.63;;;1.33;;
78406;SDS011;67692;51.074;-1.790;2023-08-31T02:58:37;4.85;;;1.50;;
78406;SDS011;67692;51.074;-1.790;2023-08-31T03:01:07;3.30;;;1.30;;
78406;SDS011;67692;51.074;-1.790;2023-08-31T03:03:36;4.93;;;1.52;;
78406;SDS011;67692;51.074;-1.790;2023-08-31T03:06:03;3.92;;;1.52;;
78406;SDS011;67692;51.074;-1.790;2023-08-31T03:08:31;4.05;;;1.48;;
78406;SDS011;67692;51.074;-1.790;2023-08-31T03:10:58;4.35;;;1.25;;
78406;SDS011;67692;51.074;-1.790;2023-08-31T03:13:24;8.50;;;1.85;;
78406;SDS011;67692;51.074;-1.790;2023-08-31T03:15:51;3.63;;;1.42;;
78406;SDS011;67692;51.074;-1.790;2023-08-31T03:18:18;6.60;;;1.67;;
78406;SDS011;67692;51.074;-1.790;2023-08-31T03:20:44;6.43;;;1.80;;
78406;SDS011;67692;51.074;-1.790;2023-08-31T03:23:11;6.05;;;1.98;;
78406;SDS011;67692;51.074;-1.790;2023-08-31T03:25:39;8.18;;;2.00;;
78406;SDS011;67692;51.074;-1.790;2023-08-31T03:28:06;3.90;;;1.65;;
78406;SDS011;67692;51.074;-1.790;2023-08-31T03:30:32;8.75;;;1.65;;
78406;SDS011;67692;51.074;-1.790;2023-08-31T03:32:59;5.57;;;2.00;;
78406;SDS011;67692;51.074;-1.790;2023-08-31T03:35:26;8.02;;;1.75;;
78406;SDS011;67692;51.074;-1.790;2023-08-31T03:37:53;4.80;;;1.75;;
78406;SDS011;67692;51.074;-1.790;2023-08-31T03:40:20;5.05;;;1.48;;
78406;SDS011;67692;51.074;-1.790;2023-08-31T03:42:49;7.57;;;2.25;;
78406;SDS011;67692;51.074;-1.790;2023-08-31T03:45:17;5.72;;;1.75;;
78406;SDS011;67692;51.074;-1.790;2023-08-31T03:47:44;8.65;;;2.30;;
78406;SDS011;67692;51.074;-1.790;2023-08-31T03:50:11;10.30;;;2.10;;
78406;SDS011;67692;51.074;-1.790;2023-08-31T03:52:38;3.75;;;1.48;;
78406;SDS011;67692;51.074;-1.790;2023-08-31T03:55:04;5.95;;;1.90;;
78406;SDS011;67692;51.074;-1.790;2023-08-31T03:57:31;5.47;;;1.67;;
78406;SDS011;67692;51.074;-1.790;2023-08-31T03:59:59;4.78;;;1.67;;
78406;SDS011;67692;51.074;-1.790;2023-08-31T04:02:28;5.78;;;1.60;;
78406;SDS011;67692;51.074;-1.790;2023-08-31T04:04:57;6.00;;;1.63;;
78406;SDS011;67692;51.074;-1.790;2023-08-31T04:07:24;4.70;;;1.40;;
78406;SDS011;67692;51.074;-1.790;2023-08-31T04:09:51;4.50;;;1.75;;
78406;SDS011;67692;51.074;-1.790;2023-08-31T04:12:17;4.35;;;1.90;;
78406;SDS011;67692;51.074;-1.790;2023-08-31T04:14:44;5.13;;;1.88;;
78406;SDS011;67692;51.074;-1.790;2023-08-31T04:17:12;3.92;;;1.65;;
78406;SDS011;67692;51.074;-1.790;2023-08-31T04:19:39;6.97;;;1.90;;
78406;SDS011;67692;51.074;-1.790;2023-08-31T04:22:05;5.13;;;2.08;;
78406;SDS011;67692;51.074;-1.790;2023-08-31T04:24:32;5.47;;;1.80;;
78406;SDS011;67692;51.074;-1.790;2023-08-31T04:26:59;5.63;;;1.88;;
78406;SDS011;67692;51.074;-1.790;2023-08-31T04:29:26;7.75;;;2.72;;
78406;SDS011;67692;51.074;-1.790;2023-08-31T04:31:52;5.10;;;1.80;;
78406;SDS011;67692;51.074;-1.790;2023-08-31T04:34:21;4.00;;;1.50;;
78406;SDS011;67692;51.074;-1.790;2023-08-31T04:36:48;6.30;;;1.80;;
78406;SDS011;67692;51.074;-1.790;2023-08-31T04:39:15;6.45;;;2.10;;
78406;SDS011;67692;51.074;-1.790;2023-08-31T04:41:42;6.80;;;1.48;;
78406;SDS011;67692;51.074;-1.790;2023-08-31T04:44:08;6.00;;;2.00;;
78406;SDS011;67692;51.074;-1.790;2023-08-31T04:46:36;7.03;;;1.67;;
78406;SDS011;67692;51.074;-1.790;2023-08-31T04:49:02;5.88;;;1.73;;
78406;SDS011;67692;51.074;-1.790;2023-08-31T04:51:31;5.80;;;1.83;;
78406;SDS011;67692;51.074;-1.790;2023-08-31T04:53:59;5.78;;;1.90;;
78406;SDS011;67692;51.074;-1.790;2023-08-31T04:56:28;5.82;;;1.70;;
78406;SDS011;67692;51.074;-1.790;2023-08-31T04:58:56;4.25;;;1.95;;
78406;SDS011;67692;51.074;-1.790;2023-08-31T05:01:23;5.15;;;1.60;;
78406;SDS011;67692;51.074;-1.790;2023-08-31T05:03:50;5.32;;;1.70;;
78406;SDS011;67692;51.074;-1.790;2023-08-31T05:06:16;5.80;;;1.90;;
78406;SDS011;67692;51.074;-1.790;2023-08-31T05:08:45;7.50;;;1.90;;
78406;SDS011;67692;51.074;-1.790;2023-08-31T05:11:11;10.40;;;2.08;;
78406;SDS011;67692;51.074;-1.790;2023-08-31T05:13:38;8.88;;;2.20;;
78406;SDS011;67692;51.074;-1.790;2023-08-31T05:16:07;5.22;;;1.75;;
78406;SDS011;67692;51.074;-1.790;2023-08-31T05:18:33;5.78;;;2.10;;
78406;SDS011;67692;51.074;-1.790;2023-08-31T05:21:01;7.43;;;1.83;;
78406;SDS011;67692;51.074;-1.790;2023-08-31T05:23:28;4.85;;;1.50;;
78406;SDS011;67692;51.074;-1.790;2023-08-31T05:25:56;5.15;;;1.52;;
78406;SDS011;67692;51.074;-1.790;2023-08-31T05:28:23;4.18;;;1.70;;
78406;SDS011;67692;51.074;-1.790;2023-08-31T05:30:52;7.25;;;2.20;;
78406;SDS011;67692;51.074;-1.790;2023-08-31T05:33:20;7.88;;;2.40;;
78406;SDS011;67692;51.074;-1.790;2023-08-31T05:35:47;8.15;;;3.05;;
78406;SDS011;67692;51.074;-1.790;2023-08-31T05:38:14;7.07;;;2.17;;
78406;SDS011;67692;51.074;-1.790;2023-08-31T05:40:41;5.35;;;2.13;;
78406;SDS011;67692;51.074;-1.790;2023-08-31T05:43:12;6.78;;;2.28;;
78406;SDS011;67692;51.074;-1.790;2023-08-31T05:45:38;6.10;;;2.80;;
78406;SDS011;67692;51.074;-1.790;2023-08-31T05:48:05;8.23;;;2.85;;
78406;SDS011;67692;51.074;-1.790;2023-08-31T05:50:32;9.27;;;2.95;;
78406;SDS011;67692;51.074;-1.790;2023-08-31T05:52:59;8.90;;;3.25;;
78406;SDS011;67692;51.074;-1.790;2023-08-31T05:55:26;9.15;;;2.63;;
78406;SDS011;67692;51.074;-1.790;2023-08-31T05:57:52;6.53;;;2.25;;
78406;SDS011;67692;51.074;-1.790;2023-08-31T06:00:21;7.97;;;3.30;;
78406;SDS011;67692;51.074;-1.790;2023-08-31T06:02:48;9.63;;;2.72;;
78406;SDS011;67692;51.074;-1.790;2023-08-31T06:05:14;7.90;;;2.67;;
78406;SDS011;67692;51.074;-1.790;2023-08-31T06:07:42;11.82;;;2.70;;
78406;SDS011;67692;51.074;-1.790;2023-08-31T06:10:09;12.32;;;3.15;;
78406;SDS011;67692;51.074;-1.790;2023-08-31T06:12:36;10.73;;;2.75;;
78406;SDS011;67692;51.074;-1.790;2023-08-31T06:15:03;9.52;;;3.13;;
78406;SDS011;67692;51.074;-1.790;2023-08-31T06:17:31;11.82;;;2.35;;
78406;SDS011;67692;51.074;-1.790;2023-08-31T06:20:00;11.35;;;2.83;;
78406;SDS011;67692;51.074;-1.790;2023-08-31T06:22:27;6.70;;;1.95;;
78406;SDS011;67692;51.074;-1.790;2023-08-31T06:24:53;9.30;;;3.05;;
78406;SDS011;67692;51.074;-1.790;2023-08-31T06:27:20;11.82;;;2.70;;
78406;SDS011;67692;51.074;-1.790;2023-08-31T06:29:47;6.40;;;2.75;;
78406;SDS011;67692;51.074;-1.790;2023-08-31T06:32:13;8.05;;;2.92;;
78406;SDS011;67692;51.074;-1.790;2023-08-31T06:34:41;14.82;;;2.60;;
78406;SDS011;67692;51.074;-1.790;2023-08-31T06:37:08;4.45;;;2.00;;
78406;SDS011;67692;51.074;-1.790;2023-08-31T06:39:35;9.98;;;2.92;;
78406;SDS011;67692;51.074;-1.790;2023-08-31T06:42:02;8.52;;;2.38;;
78406;SDS011;67692;51.074;-1.790;2023-08-31T06:44:29;8.52;;;2.95;;
78406;SDS011;67692;51.074;-1.790;2023-08-31T06:46:56;8.20;;;2.28;;
78406;SDS011;67692;51.074;-1.790;2023-08-31T06:49:23;6.20;;;2.33;;
78406;SDS011;67692;51.074;-1.790;2023-08-31T06:51:51;13.80;;;2.42;;
78406;SDS011;67692;51.074;-1.790;2023-08-31T06:54:19;6.88;;;1.98;;
78406;SDS011;67692;51.074;-1.790;2023-08-31T06:56:46;8.05;;;2.38;;
78406;SDS011;67692;51.074;-1.790;2023-08-31T06:59:13;11.68;;;2.33;;
78406;SDS011;67692;51.074;-1.790;2023-08-31T07:01:39;6.18;;;2.40;;
78406;SDS011;67692;51.074;-1.790;2023-08-31T07:04:06;9.85;;;2.40;;
78406;SDS011;67692;51.074;-1.790;2023-08-31T07:06:33;8.35;;;2.22;;
78406;SDS011;67692;51.074;-1.790;2023-08-31T07:09:02;7.35;;;2.20;;
78406;SDS011;67692;51.074;-1.790;2023-08-31T07:11:30;8.48;;;2.85;;
78406;SDS011;67692;51.074;-1.790;2023-08-31T07:13:57;8.18;;;2.13;;
78406;SDS011;67692;51.074;-1.790;2023-08-31T07:16:24;5.60;;;2.20;;
78406;SDS011;67692;51.074;-1.790;2023-08-31T07:18:51;6.57;;;2.28;;
78406;SDS011;67692;51.074;-1.790;2023-08-31T07:21:17;6.32;;;2.05;;
78406;SDS011;67692;51.074;-1.790;2023-08-31T07:23:44;7.95;;;2.58;;
78406;SDS011;67692;51.074;-1.790;2023-08-31T07:26:13;10.63;;;2.22;;
78406;SDS011;67692;51.074;-1.790;2023-08-31T07:28:41;6.97;;;2.60;;
78406;SDS011;67692;51.074;-1.790;2023-08-31T07:31:08;5.63;;;2.08;;
78406;SDS011;67692;51.074;-1.790;2023-08-31T07:33:34;10.25;;;2.30;;
78406;SDS011;67692;51.074;-1.790;2023-08-31T07:36:01;7.38;;;2.60;;
78406;SDS011;67692;51.074;-1.790;2023-08-31T07:38:30;7.55;;;1.95;;
78406;SDS011;67692;51.074;-1.790;2023-08-31T07:40:57;5.20;;;2.10;;
78406;SDS011;67692;51.074;-1.790;2023-08-31T07:43:26;8.00;;;1.70;;
78406;SDS011;67692;51.074;-1.790;2023-08-31T07:45:53;5.22;;;1.45;;
78406;SDS011;67692;51.074;-1.790;2023-08-31T07:48:20;9.82;;;2.22;;
78406;SDS011;67692;51.074;-1.790;2023-08-31T07:50:47;3.90;;;1.23;;
78406;SDS011;67692;51.074;-1.790;2023-08-31T07:53:14;4.72;;;1.95;;
78406;SDS011;67692;51.074;-1.790;2023-08-31T07:55:50;6.00;;;1.23;;
78406;SDS011;67692;51.074;-1.790;2023-08-31T07:58:23;4.13;;;1.30;;
78406;SDS011;67692;51.074;-1.790;2023-08-31T08:00:53;5.40;;;1.73;;
78406;SDS011;67692;51.074;-1.790;2023-08-31T08:03:20;5.93;;;1.70;;
78406;SDS011;67692;51.074;-1.790;2023-08-31T08:05:47;5.03;;;1.42;;
78406;SDS011;67692;51.074;-1.790;2023-08-31T08:08:14;7.90;;;1.83;;
78406;SDS011;67692;51.074;-1.790;2023-08-31T08:10:41;7.25;;;1.67;;
78406;SDS011;67692;51.074;-1.790;2023-08-31T08:13:08;4.28;;;1.02;;
78406;SDS011;67692;51.074;-1.790;2023-08-31T08:15:35;3.85;;;1.33;;
78406;SDS011;67692;51.074;-1.790;2023-08-31T08:18:03;4.10;;;1.25;;
78406;SDS011;67692;51.074;-1.790;2023-08-31T08:20:30;5.35;;;1.70;;
78406;SDS011;67692;51.074;-1.790;2023-08-31T08:22:57;4.90;;;1.63;;
78406;SDS011;67692;51.074;-1.790;2023-08-31T08:25:24;6.00;;;1.73;;
78406;SDS011;67692;51.074;-1.790;2023-08-31T08:27:51;5.63;;;1.50;;
78406;SDS011;67692;51.074;-1.790;2023-08-31T08:30:18;6.18;;;1.83;;
78406;SDS011;67692;51.074;-1.790;2023-08-31T08:32:44;7.00;;;1.98;;
78406;SDS011;67692;51.074;-1.790;2023-08-31T08:35:12;9.15;;;1.42;;
78406;SDS011;67692;51.074;-1.790;2023-08-31T08:37:39;5.90;;;1.63;;
78406;SDS011;67692;51.074;-1.790;2023-08-31T08:40:06;8.30;;;1.90;;
78406;SDS011;67692;51.074;-1.790;2023-08-31T08:42:36;9.32;;;2.40;;
78406;SDS011;67692;51.074;-1.790;2023-08-31T08:45:07;7.60;;;2.05;;
78406;SDS011;67692;51.074;-1.790;2023-08-31T08:47:39;5.38;;;1.83;;
78406;SDS011;67692;51.074;-1.790;2023-08-31T08:50:06;7.28;;;2.30;;
78406;SDS011;67692;51.074;-1.790;2023-08-31T08:52:36;5.50;;;1.80;;
78406;SDS011;67692;51.074;-1.790;2023-08-31T08:55:03;8.15;;;2.35;;
78406;SDS011;67692;51.074;-1.790;2023-08-31T08:57:31;5.07;;;2.08;;
78406;SDS011;67692;51.074;-1.790;2023-08-31T08:59:58;6.95;;;2.22;;
78406;SDS011;67692;51.074;-1.790;2023-08-31T09:02:24;5.78;;;2.30;;
78406;SDS011;67692;51.074;-1.790;2023-08-31T09:04:51;4.50;;;1.88;;
78406;SDS011;67692;51.074;-1.790;2023-08-31T09:07:19;6.05;;;1.80;;
78406;SDS011;67692;51.074;-1.790;2023-08-31T09:09:51;7.03;;;1.80;;
78406;SDS011;67692;51.074;-1.790;2023-08-31T09:12:21;7.97;;;1.73;;
78406;SDS011;67692;51.074;-1.790;2023-08-31T09:14:59;7.22;;;1.90;;
78406;SDS011;67692;51.074;-1.790;2023-08-31T09:17:26;8.00;;;1.83;;
78406;SDS011;67692;51.074;-1.790;2023-08-31T09:20:04;6.13;;;1.73;;
78406;SDS011;67692;51.074;-1.790;2023-08-31T09:22:32;5.80;;;1.75;;
78406;SDS011;67692;51.074;-1.790;2023-08-31T09:25:01;8.02;;;1.58;;
78406;SDS011;67692;51.074;-1.790;2023-08-31T09:27:29;6.32;;;1.55;;
78406;SDS011;67692;51.074;-1.790;2023-08-31T09:29:56;7.20;;;1.35;;
78406;SDS011;67692;51.074;-1.790;2023-08-31T09:32:23;5.35;;;1.63;;
78406;SDS011;67692;51.074;-1.790;2023-08-31T09:34:49;8.43;;;1.75;;
78406;SDS011;67692;51.074;-1.790;2023-08-31T09:37:16;4.38;;;1.33;;
78406;SDS011;67692;51.074;-1.790;2023-08-31T09:39:43;3.97;;;1.58;;
78406;SDS011;67692;51.074;-1.790;2023-08-31T09:42:12;7.65;;;1.55;;
78406;SDS011;67692;51.074;-1.790;2023-08-31T09:44:42;6.38;;;1.60;;
78406;SDS011;67692;51.074;-1.790;2023-08-31T09:47:11;6.32;;;2.25;;
78406;SDS011;67692;51.074;-1.790;2023-08-31T09:49:39;8.13;;;1.70;;
78406;SDS011;67692;51.074;-1.790;2023-08-31T09:52:08;6.40;;;1.58;;
78406;SDS011;67692;51.074;-1.790;2023-08-31T09:54:36;7.03;;;1.50;;
78406;SDS011;67692;51.074;-1.790;2023-08-31T09:57:03;6.00;;;1.42;;
78406;SDS011;67692;51.074;-1.790;2023-08-31T09:59:33;4.47;;;1.30;;
78406;SDS011;67692;51.074;-1.790;2023-08-31T10:02:00;6.50;;;1.80;;
78406;SDS011;67692;51.074;-1.790;2023-08-31T10:04:29;2.97;;;1.35;;
78406;SDS011;67692;51.074;-1.790;2023-08-31T10:06:57;3.38;;;1.48;;
78406;SDS011;67692;51.074;-1.790;2023-08-31T10:09:24;5.82;;;1.58;;
78406;SDS011;67692;51.074;-1.790;2023-08-31T10:11:51;3.65;;;1.40;;
78406;SDS011;67692;51.074;-1.790;2023-08-31T10:14:19;4.05;;;1.50;;
78406;SDS011;67692;51.074;-1.790;2023-08-31T10:16:48;4.78;;;1.38;;
78406;SDS011;67692;51.074;-1.790;2023-08-31T10:19:17;5.05;;;1.83;;
78406;SDS011;67692;51.074;-1.790;2023-08-31T10:21:44;3.35;;;1.20;;
78406;SDS011;67692;51.074;-1.790;2023-08-31T10:24:11;4.65;;;1.58;;
78406;SDS011;67692;51.074;-1.790;2023-08-31T10:26:37;4.35;;;1.80;;
78406;SDS011;67692;51.074;-1.790;2023-08-31T10:29:04;4.93;;;1.48;;
78406;SDS011;67692;51.074;-1.790;2023-08-31T10:31:31;5.20;;;1.58;;
78406;SDS011;67692;51.074;-1.790;2023-08-31T10:34:01;8.60;;;2.13;;
78406;SDS011;67692;51.074;-1.790;2023-08-31T10:36:36;3.20;;;1.08;;
78406;SDS011;67692;51.074;-1.790;2023-08-31T10:39:10;3.83;;;1.17;;
78406;SDS011;67692;51.074;-1.790;2023-08-31T10:41:38;4.43;;;1.20;;
78406;SDS011;67692;51.074;-1.790;2023-08-31T10:44:18;7.07;;;1.40;;
78406;SDS011;67692;51.074;-1.790;2023-08-31T10:46:46;3.25;;;1.42;;
78406;SDS011;67692;51.074;-1.790;2023-08-31T10:49:14;3.78;;;1.10;;
78406;SDS011;67692;51.074;-1.790;2023-08-31T10:51:43;3.53;;;1.08;;
78406;SDS011;67692;51.074;-1.790;2023-08-31T10:54:11;3.97;;;1.10;;
78406;SDS011;67692;51.074;-1.790;2023-08-31T11:02:27;4.43;;;1.70;;
78406;SDS011;67692;51.074;-1.790;2023-08-31T11:05:01;4.30;;;1.40;;
78406;SDS011;67692;51.074;-1.790;2023-08-31T11:07:32;5.40;;;1.58;;
78406;SDS011;67692;51.074;-1.790;2023-08-31T11:10:06;5.68;;;1.48;;
78406;SDS011;67692;51.074;-1.790;2023-08-31T11:12:38;4.35;;;1.35;;
78406;SDS011;67692;51.074;-1.790;2023-08-31T11:15:05;4.63;;;1.70;;
78406;SDS011;67692;51.074;-1.790;2023-08-31T11:17:32;5.32;;;1.70;;
78406;SDS011;67692;51.074;-1.790;2023-08-31T11:20:01;5.97;;;1.42;;
78406;SDS011;67692;51.074;-1.790;2023-08-31T11:22:30;4.47;;;1.55;;
78406;SDS011;67692;51.074;-1.790;2023-08-31T11:24:58;5.38;;;1.90;;
78406;SDS011;67692;51.074;-1.790;2023-08-31T11:27:25;3.70;;;1.42;;
78406;SDS011;67692;51.074;-1.790;2023-08-31T11:29:52;4.13;;;1.48;;
78406;SDS011;67692;51.074;-1.790;2023-08-31T11:32:18;4.45;;;1.70;;
78406;SDS011;67692;51.074;-1.790;2023-08-31T11:34:45;4.65;;;1.58;;
78406;SDS011;67692;51.074;-1.790;2023-08-31T11:37:13;5.53;;;1.58;;
78406;SDS011;67692;51.074;-1.790;2023-08-31T11:39:42;4.60;;;2.08;;
78406;SDS011;67692;51.074;-1.790;2023-08-31T11:42:15;3.80;;;1.50;;
78406;SDS011;67692;51.074;-1.790;2023-08-31T11:44:43;5.90;;;1.85;;
78406;SDS011;67692;51.074;-1.790;2023-08-31T11:47:11;3.95;;;1.42;;
78406;SDS011;67692;51.074;-1.790;2023-08-31T11:49:38;7.35;;;1.40;;
78406;SDS011;67692;51.074;-1.790;2023-08-31T11:52:06;6.07;;;1.50;;
78406;SDS011;67692;51.074;-1.790;2023-08-31T11:54:34;5.63;;;1.48;;
78406;SDS011;67692;51.074;-1.790;2023-08-31T11:57:03;5.18;;;1.35;;
78406;SDS011;67692;51.074;-1.790;2023-08-31T11:59:34;4.38;;;1.23;;
78406;SDS011;67692;51.074;-1.790;2023-08-31T12:02:04;4.93;;;1.38;;
78406;SDS011;67692;51.074;-1.790;2023-08-31T12:04:33;5.93;;;1.42;;
78406;SDS011;67692;51.074;-1.790;2023-08-31T12:07:01;4.47;;;1.17;;
78406;SDS011;67692;51.074;-1.790;2023-08-31T12:11:57;3.00;;;1.30;;
78406;SDS011;67692;51.074;-1.790;2023-08-31T12:14:25;6.22;;;1.50;;
78406;SDS011;67692;51.074;-1.790;2023-08-31T12:16:59;2.65;;;1.10;;
78406;SDS011;67692;51.074;-1.790;2023-08-31T12:19:28;3.92;;;1.42;;
78406;SDS011;67692;51.074;-1.790;2023-08-31T12:21:55;2.78;;;0.93;;
78406;SDS011;67692;51.074;-1.790;2023-08-31T12:24:22;4.05;;;1.02;;
78406;SDS011;67692;51.074;-1.790;2023-08-31T12:26:49;3.63;;;1.30;;
78406;SDS011;67692;51.074;-1.790;2023-08-31T12:29:20;3.40;;;1.20;;
78406;SDS011;67692;51.074;-1.790;2023-08-31T12:31:48;2.85;;;1.00;;
78406;SDS011;67692;51.074;-1.790;2023-08-31T12:34:16;1.25;;;0.55;;
78406;SDS011;67692;51.074;-1.790;2023-08-31T12:36:43;2.95;;;0.82;;
78406;SDS011;67692;51.074;-1.790;2023-08-31T12:39:09;5.85;;;1.15;;
78406;SDS011;67692;51.074;-1.790;2023-08-31T12:41:37;5.22;;;1.02;;
78406;SDS011;67692;51.074;-1.790;2023-08-31T12:44:04;1.60;;;0.70;;
78406;SDS011;67692;51.074;-1.790;2023-08-31T12:46:32;2.38;;;0.70;;
78406;SDS011;67692;51.074;-1.790;2023-08-31T12:48:59;2.38;;;0.75;;
78406;SDS011;67692;51.074;-1.790;2023-08-31T12:51:27;3.00;;;1.00;;
78406;SDS011;67692;51.074;-1.790;2023-08-31T12:53:54;1.80;;;0.80;;
78406;SDS011;67692;51.074;-1.790;2023-08-31T12:56:21;1.67;;;0.80;;
78406;SDS011;67692;51.074;-1.790;2023-08-31T12:58:48;1.35;;;0.75;;
78406;SDS011;67692;51.074;-1.790;2023-08-31T13:01:16;2.13;;;0.70;;
78406;SDS011;67692;51.074;-1.790;2023-08-31T13:03:45;4.43;;;1.20;;
78406;SDS011;67692;51.074;-1.790;2023-08-31T13:06:12;1.55;;;0.68;;
78406;SDS011;67692;51.074;-1.790;2023-08-31T13:08:39;1.95;;;0.80;;
78406;SDS011;67692;51.074;-1.790;2023-08-31T13:11:06;1.70;;;0.65;;
78406;SDS011;67692;51.074;-1.790;2023-08-31T13:13:33;2.67;;;0.80;;
78406;SDS011;67692;51.074;-1.790;2023-08-31T13:15:59;2.95;;;0.68;;
78406;SDS011;67692;51.074;-1.790;2023-08-31T13:18:27;1.92;;;0.80;;
78406;SDS011;67692;51.074;-1.790;2023-08-31T13:20:56;1.58;;;0.90;;
78406;SDS011;67692;51.074;-1.790;2023-08-31T13:23:23;2.28;;;0.98;;
78406;SDS011;67692;51.074;-1.790;2023-08-31T13:25:50;2.95;;;1.00;;
78406;SDS011;67692;51.074;-1.790;2023-08-31T13:28:17;2.88;;;0.80;;
78406;SDS011;67692;51.074;-1.790;2023-08-31T13:30:44;2.03;;;0.98;;
78406;SDS011;67692;51.074;-1.790;2023-08-31T13:33:11;2.13;;;1.00;;
78406;SDS011;67692;51.074;-1.790;2023-08-31T13:35:38;2.63;;;1.08;;
78406;SDS011;67692;51.074;-1.790;2023-08-31T13:38:06;6.57;;;1.40;;
78406;SDS011;67692;51.074;-1.790;2023-08-31T13:40:33;2.63;;;0.90;;
78406;SDS011;67692;51.074;-1.790;2023-08-31T13:43:01;2.55;;;0.98;;
78406;SDS011;67692;51.074;-1.790;2023-08-31T13:45:29;4.95;;;1.20;;
78406;SDS011;67692;51.074;-1.790;2023-08-31T13:47:56;4.50;;;1.10;;
78406;SDS011;67692;51.074;-1.790;2023-08-31T13:50:25;3.50;;;1.40;;
78406;SDS011;67692;51.074;-1.790;2023-08-31T13:52:51;3.70;;;1.10;;
78406;SDS011;67692;51.074;-1.790;2023-08-31T13:55:20;2.63;;;1.00;;
78406;SDS011;67692;51.074;-1.790;2023-08-31T13:57:47;3.28;;;1.10;;
78406;SDS011;67692;51.074;-1.790;2023-08-31T14:00:14;1.73;;;0.85;;
78406;SDS011;67692;51.074;-1.790;2023-08-31T14:02:41;2.72;;;1.10;;
78406;SDS011;67692;51.074;-1.790;2023-08-31T14:05:10;3.33;;;1.00;;
78406;SDS011;67692;51.074;-1.790;2023-08-31T14:07:37;3.17;;;1.30;;
78406;SDS011;67692;51.074;-1.790;2023-08-31T14:10:04;3.10;;;1.10;;
78406;SDS011;67692;51.074;-1.790;2023-08-31T14:12:33;3.83;;;1.35;;
78406;SDS011;67692;51.074;-1.790;2023-08-31T14:15:00;2.50;;;1.15;;
78406;SDS011;67692;51.074;-1.790;2023-08-31T14:17:29;3.05;;;1.15;;
78406;SDS011;67692;51.074;-1.790;2023-08-31T14:19:58;3.05;;;1.42;;
78406;SDS011;67692;51.074;-1.790;2023-08-31T14:22:25;3.30;;;1.42;;
78406;SDS011;67692;51.074;-1.790;2023-08-31T14:24:51;2.95;;;1.50;;
78406;SDS011;67692;51.074;-1.790;2023-08-31T14:27:18;3.30;;;1.52;;
78406;SDS011;67692;51.074;-1.790;2023-08-31T14:29:46;4.10;;;1.60;;
78406;SDS011;67692;51.074;-1.790;2023-08-31T14:32:13;3.20;;;1.30;;
78406;SDS011;67692;51.074;-1.790;2023-08-31T14:34:41;8.70;;;1.65;;
78406;SDS011;67692;51.074;-1.790;2023-08-31T14:37:08;2.78;;;1.33;;
78406;SDS011;67692;51.074;-1.790;2023-08-31T14:39:35;3.92;;;1.60;;
78406;SDS011;67692;51.074;-1.790;2023-08-31T14:42:02;6.53;;;1.58;;
78406;SDS011;67692;51.074;-1.790;2023-08-31T14:44:29;3.65;;;1.83;;